createdAt,value
2022-08-08T00:02:04.113Z,67.66
2022-08-08T00:04:49.310Z,68.08
2022-08-08T00:07:41.272Z,67.03
2022-08-08T00:10:15.866Z,67.49
2022-08-08T00:12:56.281Z,66.21
2022-08-08T00:15:57.334Z,66.73
2022-08-08T00:18:28.055Z,67.59
2022-08-08T00:20:58.693Z,67.78
2022-08-08T00:23:42.412Z,68.49
2022-08-08T00:26:26.215Z,68.55
2022-08-08T00:29:08.292Z,67.70
2022-08-08T00:32:29.127Z,68.78
2022-08-08T00:35:04.097Z,68.58
2022-08-08T00:37:47.390Z,68.25
2022-08-08T00:41:18.495Z,68.38
2022-08-08T00:44:26.247Z,68.14
2022-08-08T00:47:24.043Z,65.07
2022-08-08T00:50:24.856Z,66.15
2022-08-08T00:53:15.805Z,65.67
2022-08-08T00:56:36.525Z,62.82
2022-08-08T00:59:43.661Z,62.79
2022-08-08T01:04:02.497Z,64.57
2022-08-08T01:06:16.213Z,64.85
2022-08-08T01:09:35.494Z,66.25
2022-08-08T01:12:54.634Z,67.45
2022-08-08T01:16:04.210Z,66.61
2022-08-08T01:19:51.867Z,67.99
2022-08-08T01:22:45.644Z,67.24
2022-08-08T01:25:58.755Z,67.42
2022-08-08T01:29:06.875Z,67.94
2022-08-08T01:32:31.205Z,67.50
2022-08-08T01:35:29.604Z,67.20
2022-08-08T01:38:58.736Z,67.48
2022-08-08T01:41:43.782Z,67.91
2022-08-08T01:44:31.099Z,67.69
2022-08-08T01:48:23.398Z,66.29
2022-08-08T01:50:17.060Z,65.11
2022-08-08T01:55:14.753Z,66.37
2022-08-08T01:56:30.579Z,67.85
2022-08-08T01:58:56.607Z,69.31
2022-08-08T02:02:00.109Z,68.94
2022-08-08T02:04:46.081Z,68.75
2022-08-08T02:07:27.859Z,68.64
2022-08-08T02:10:37.268Z,68.43
2022-08-08T02:13:52.666Z,68.08
2022-08-08T02:16:29.528Z,68.18
2022-08-08T02:19:57.465Z,68.51
2022-08-08T02:22:45.786Z,67.27
2022-08-08T02:25:33.123Z,64.50
2022-08-08T02:28:35.081Z,62.45
2022-08-08T02:31:58.167Z,64.19
2022-08-08T02:34:32.739Z,66.42
2022-08-08T02:37:52.412Z,66.52
2022-08-08T02:40:09.484Z,66.58
2022-08-08T02:44:42.670Z,67.34
2022-08-08T02:46:31.966Z,66.56
2022-08-08T02:49:48.016Z,67.12
2022-08-08T02:52:51.336Z,67.15
2022-08-08T02:56:03.290Z,68.19
2022-08-08T02:59:36.991Z,67.99
2022-08-08T03:03:01.069Z,67.26
2022-08-08T03:06:03.511Z,67.64
2022-08-08T03:09:04.436Z,67.83
2022-08-08T03:12:16.905Z,68.13
2022-08-08T03:15:59.703Z,68.38
2022-08-08T03:18:45.734Z,67.73
2022-08-08T03:21:15.672Z,68.26
2022-08-08T03:23:59.251Z,68.29
2022-08-08T03:26:42.675Z,69.45
2022-08-08T03:29:38.152Z,69.68
2022-08-08T03:33:56.859Z,69.44
2022-08-08T03:36:44.525Z,69.21
2022-08-08T03:39:51.587Z,70.52
2022-08-08T03:42:30.813Z,70.36
2022-08-08T03:46:02.857Z,71.66
2022-08-08T03:47:58.922Z,71.85
2022-08-08T03:50:30.333Z,72.03
2022-08-08T03:53:09.265Z,68.94
2022-08-08T03:55:57.966Z,68.92
2022-08-08T03:58:38.075Z,68.92
2022-08-08T04:01:27.166Z,69.47
2022-08-08T04:04:23.188Z,69.50
2022-08-08T04:07:01.971Z,69.38
2022-08-08T04:09:59.306Z,69.68
2022-08-08T04:12:27.842Z,71.09
2022-08-08T04:14:57.776Z,69.83
2022-08-08T04:17:58.295Z,69.79
2022-08-08T04:20:28.624Z,69.02
2022-08-08T04:23:03.560Z,69.09
2022-08-08T04:25:38.158Z,69.39
2022-08-08T04:28:36.545Z,69.38
2022-08-08T04:30:57.944Z,70.52
2022-08-08T04:33:29.609Z,70.76
2022-08-08T04:36:11.821Z,70.72
2022-08-08T04:38:42.366Z,68.18
2022-08-08T04:41:11.452Z,67.82
2022-08-08T04:43:54.279Z,68.47
2022-08-08T04:46:31.276Z,68.37
2022-08-08T04:49:02.423Z,68.04
2022-08-08T04:51:56.796Z,67.56
2022-08-08T04:54:39.573Z,68.07
2022-08-08T04:57:11.149Z,67.63
2022-08-08T04:59:41.915Z,67.76
2022-08-08T05:02:13.629Z,67.78
2022-08-08T05:04:44.809Z,67.77
2022-08-08T05:07:21.749Z,67.28
2022-08-08T05:09:51.996Z,67.15
2022-08-08T05:12:29.733Z,68.75
2022-08-08T05:15:00.064Z,69.78
2022-08-08T05:17:53.689Z,70.22
2022-08-08T05:20:19.935Z,70.58
2022-08-08T05:22:50.299Z,70.79
2022-08-08T05:25:21.410Z,70.14
2022-08-08T05:27:50.503Z,69.51
2022-08-08T05:30:28.221Z,69.95
2022-08-08T05:32:57.863Z,69.39
2022-08-08T05:35:27.937Z,68.41
2022-08-08T05:38:04.586Z,68.32
2022-08-08T05:40:58.214Z,68.22
2022-08-08T05:43:39.435Z,68.29
2022-08-08T05:46:29.619Z,66.98
2022-08-08T05:49:10.393Z,67.10
2022-08-08T05:51:49.232Z,68.34
2022-08-08T05:54:42.961Z,68.21
2022-08-08T05:57:20.944Z,68.41
2022-08-08T06:00:23.145Z,66.98
2022-08-08T06:03:17.283Z,66.67
2022-08-08T06:05:58.934Z,66.65
2022-08-08T06:08:34.833Z,65.73
2022-08-08T06:11:22.873Z,66.21
2022-08-08T06:14:26.611Z,66.84
2022-08-08T06:16:57.866Z,65.68
2022-08-08T06:20:11.700Z,66.83
2022-08-08T06:22:47.034Z,66.41
2022-08-08T06:25:58.865Z,65.12
2022-08-08T06:28:54.188Z,64.16
2022-08-08T06:31:52.177Z,65.50
2022-08-08T06:34:25.609Z,64.69
2022-08-08T06:37:29.239Z,64.83
2022-08-08T06:40:12.126Z,64.75
2022-08-08T06:43:06.153Z,63.45
2022-08-08T06:45:58.862Z,62.56
2022-08-08T06:48:30.934Z,62.74
2022-08-08T06:51:07.669Z,64.27
2022-08-08T06:53:50.911Z,62.04
2022-08-08T06:56:26.486Z,62.92
2022-08-08T06:58:55.504Z,62.01
2022-08-08T07:02:26.988Z,64.75
2022-08-08T07:04:38.777Z,63.33
2022-08-08T07:07:12.602Z,62.66
2022-08-08T07:09:56.581Z,63.00
2022-08-08T07:12:40.363Z,63.13
2022-08-08T07:15:23.363Z,62.84
2022-08-08T07:18:35.023Z,64.12
2022-08-08T07:20:58.599Z,61.09
2022-08-08T07:24:00.924Z,59.73
2022-08-08T07:26:35.147Z,59.08
2022-08-08T07:29:08.261Z,60.95
2022-08-08T07:31:42.291Z,60.38
2022-08-08T07:34:20.325Z,60.54
2022-08-08T07:37:11.641Z,60.53
2022-08-08T07:39:45.456Z,59.07
2022-08-08T07:42:19.143Z,59.82
2022-08-08T07:44:54.387Z,59.16
2022-08-08T07:47:38.615Z,58.84
2022-08-08T07:50:11.373Z,58.28
2022-08-08T07:52:44.663Z,58.06
2022-08-08T07:55:24.061Z,57.42
2022-08-08T07:58:05.913Z,57.43
2022-08-08T08:00:42.154Z,56.31
2022-08-08T08:03:23.842Z,56.91
2022-08-08T08:06:00.377Z,58.23
2022-08-08T08:08:50.106Z,56.71
2022-08-08T08:11:38.402Z,54.58
2022-08-08T08:14:20.681Z,55.40
2022-08-08T08:16:50.897Z,56.25
2022-08-08T08:19:31.955Z,55.75
2022-08-08T08:22:15.085Z,54.67
2022-08-08T08:24:47.495Z,54.39
2022-08-08T08:27:21.913Z,53.39
2022-08-08T08:29:57.401Z,52.12
2022-08-08T08:32:35.569Z,53.27
2022-08-08T08:35:08.961Z,54.59
2022-08-08T08:37:59.319Z,53.12
2022-08-08T08:40:32.092Z,53.18
2022-08-08T08:43:03.892Z,52.63
2022-08-08T08:45:34.087Z,51.82
2022-08-08T08:48:05.524Z,51.62
2022-08-08T08:50:40.988Z,51.67
2022-08-08T08:53:54.165Z,51.23
2022-08-08T08:56:13.001Z,51.31
2022-08-08T08:58:50.386Z,50.97
2022-08-08T09:01:43.745Z,51.52
2022-08-08T09:04:30.844Z,51.21
2022-08-08T09:07:13.596Z,51.77
2022-08-08T09:09:55.265Z,51.18
2022-08-08T09:12:35.575Z,52.18
2022-08-08T09:15:06.267Z,52.05
2022-08-08T09:17:55.213Z,53.39
2022-08-08T09:22:00.859Z,53.26
2022-08-08T09:23:24.492Z,51.93
2022-08-08T09:26:03.194Z,52.51
2022-08-08T09:28:41.163Z,51.10
2022-08-08T09:31:18.676Z,52.09
2022-08-08T09:34:06.284Z,52.28
2022-08-08T09:37:28.600Z,52.33
2022-08-08T09:39:44.310Z,51.70
2022-08-08T09:42:21.847Z,52.27
2022-08-08T09:45:08.060Z,50.70
2022-08-08T09:48:04.024Z,52.76
2022-08-08T09:50:35.660Z,51.02
2022-08-08T09:53:23.853Z,51.52
2022-08-08T09:56:05.900Z,53.03
2022-08-08T09:58:40.490Z,53.37
2022-08-08T10:01:15.241Z,53.93
2022-08-08T10:04:02.372Z,53.80
2022-08-08T10:06:35.896Z,54.97
2022-08-08T10:09:08.518Z,55.20
2022-08-08T10:12:26.967Z,55.57
2022-08-08T10:14:38.586Z,56.43
2022-08-08T10:17:56.329Z,56.78
2022-08-08T10:20:02.002Z,56.97
2022-08-08T10:22:37.327Z,57.26
2022-08-08T10:25:24.981Z,58.47
2022-08-08T10:27:57.675Z,60.67
2022-08-08T10:31:00.062Z,63.23
2022-08-08T10:33:17.990Z,63.66
2022-08-08T10:36:07.578Z,65.27
2022-08-08T10:38:46.418Z,67.19
2022-08-08T10:41:20.271Z,69.07
2022-08-08T10:43:53.077Z,70.96
2022-08-08T10:46:29.995Z,71.99
2022-08-08T10:49:00.355Z,73.48
2022-08-08T10:51:47.142Z,75.96
2022-08-08T10:54:27.015Z,76.35
2022-08-08T10:56:58.577Z,77.88
2022-08-08T10:59:30.942Z,81.22
2022-08-08T11:02:00.611Z,83.27
2022-08-08T11:04:39.039Z,83.86
2022-08-08T11:07:15.066Z,84.97
2022-08-08T11:10:01.734Z,84.47
2022-08-08T11:12:31.110Z,84.84
2022-08-08T11:15:07.567Z,85.76
2022-08-08T11:18:00.335Z,85.90
2022-08-08T11:20:28.280Z,86.26
2022-08-08T11:22:57.739Z,85.95
2022-08-08T11:25:52.896Z,88.32
2022-08-08T11:28:25.834Z,85.89
2022-08-08T11:30:59.873Z,87.25
2022-08-08T11:33:52.001Z,87.54
2022-08-08T11:36:17.263Z,87.17
2022-08-08T11:38:54.690Z,87.57
2022-08-08T11:41:27.884Z,85.66
2022-08-08T11:44:02.047Z,86.59
2022-08-08T11:46:32.727Z,85.06
2022-08-08T11:49:04.068Z,84.73
2022-08-08T11:51:39.672Z,86.13
2022-08-08T11:54:31.807Z,87.90
2022-08-08T11:57:17.071Z,85.44
2022-08-08T11:59:58.622Z,84.70
2022-08-08T12:02:48.445Z,85.45
2022-08-08T12:05:22.613Z,87.03
2022-08-08T12:07:55.799Z,88.13
2022-08-08T12:10:26.269Z,86.47
2022-08-08T12:13:04.078Z,87.12
2022-08-08T12:15:41.743Z,87.31
2022-08-08T12:18:16.052Z,89.31
2022-08-08T12:20:46.871Z,89.18
2022-08-08T12:23:30.668Z,89.07
2022-08-08T12:26:17.186Z,88.80
2022-08-08T12:28:59.479Z,90.50
2022-08-08T12:31:39.354Z,88.24
2022-08-08T12:34:36.555Z,89.33
2022-08-08T12:37:08.525Z,88.43
2022-08-08T12:39:59.987Z,87.99
2022-08-08T12:42:33.542Z,87.32
2022-08-08T12:45:58.072Z,87.99
2022-08-08T12:48:35.667Z,83.83
2022-08-08T12:50:59.224Z,84.69
2022-08-08T12:53:37.630Z,85.91
2022-08-08T12:56:19.315Z,84.58
2022-08-08T12:58:55.121Z,82.97
2022-08-08T13:01:37.906Z,82.96
2022-08-08T13:04:18.415Z,83.94
2022-08-08T13:07:03.134Z,83.68
2022-08-08T13:10:02.021Z,81.85
2022-08-08T13:12:32.947Z,83.19
2022-08-08T13:15:03.672Z,83.05
2022-08-08T13:18:09.148Z,82.57
2022-08-08T13:20:27.215Z,80.82
2022-08-08T13:25:50.405Z,79.62
2022-08-08T13:28:32.152Z,78.59
2022-08-08T13:31:01.945Z,81.21
2022-08-08T13:33:42.351Z,77.23
2022-08-08T13:36:12.172Z,76.95
2022-08-08T13:38:41.759Z,78.79
2022-08-08T13:41:16.437Z,78.59
2022-08-08T13:43:46.964Z,79.21
2022-08-08T13:46:25.995Z,80.03
2022-08-08T13:49:11.803Z,77.59
2022-08-08T13:51:57.100Z,77.81
2022-08-08T13:54:29.492Z,76.96
2022-08-08T13:57:08.495Z,77.58
2022-08-08T13:59:39.348Z,76.09
2022-08-08T14:02:20.625Z,78.55
2022-08-08T14:05:04.849Z,77.25
2022-08-08T14:07:39.504Z,76.37
2022-08-08T14:10:17.547Z,75.81
2022-08-08T14:13:20.729Z,76.80
2022-08-08T14:16:03.573Z,76.85
2022-08-08T14:18:36.691Z,77.42
2022-08-08T14:21:22.697Z,77.21
2022-08-08T14:24:06.944Z,77.74
2022-08-08T14:26:38.367Z,75.91
2022-08-08T14:29:14.753Z,75.81
2022-08-08T14:32:09.930Z,76.18
2022-08-08T14:34:43.397Z,72.95
2022-08-08T14:37:18.527Z,74.68
2022-08-08T14:39:54.048Z,74.05
2022-08-08T14:42:37.220Z,75.50
2022-08-08T14:45:33.316Z,74.80
2022-08-08T14:48:17.826Z,73.81
2022-08-08T14:51:07.079Z,73.96
2022-08-08T14:53:55.607Z,74.03
2022-08-08T14:56:25.590Z,74.25
2022-08-08T14:58:54.853Z,73.06
2022-08-08T15:01:41.358Z,71.67
2022-08-08T15:04:11.755Z,73.61
2022-08-08T15:06:44.505Z,72.87
2022-08-08T15:09:15.420Z,74.37
2022-08-08T15:11:53.050Z,73.11
2022-08-08T15:14:26.413Z,75.44
2022-08-08T15:16:55.348Z,73.97
2022-08-08T15:19:27.694Z,73.89
2022-08-08T15:21:58.078Z,75.92
2022-08-08T15:24:31.150Z,74.84
2022-08-08T15:27:20.151Z,73.72
2022-08-08T15:29:48.708Z,73.21
2022-08-08T15:32:22.565Z,71.60
2022-08-08T15:34:51.281Z,71.94
2022-08-08T15:37:19.423Z,71.63
2022-08-08T15:39:49.655Z,70.82
2022-08-08T15:42:32.414Z,70.52
2022-08-08T15:45:02.392Z,71.15
2022-08-08T15:47:31.435Z,71.63
2022-08-08T15:50:00.609Z,72.19
2022-08-08T15:52:30.319Z,72.80
2022-08-08T15:55:02.969Z,71.38
2022-08-08T15:57:35.287Z,70.64
2022-08-08T16:00:27.361Z,71.67
2022-08-08T16:02:55.741Z,72.42
2022-08-08T16:05:35.245Z,72.63
2022-08-08T16:08:17.830Z,72.76
2022-08-08T16:13:10.579Z,72.75
2022-08-08T16:13:46.735Z,72.39
2022-08-08T16:16:18.740Z,72.63
2022-08-08T16:18:57.067Z,72.20
2022-08-08T16:21:29.075Z,72.49
2022-08-08T16:23:57.974Z,72.76
2022-08-08T16:26:34.683Z,73.42
2022-08-08T16:29:07.768Z,73.59
2022-08-08T16:31:40.323Z,74.18
2022-08-08T16:34:09.212Z,73.98
2022-08-08T16:36:37.969Z,73.94
2022-08-08T16:39:16.570Z,74.33
2022-08-08T16:42:01.222Z,75.21
2022-08-08T16:44:33.989Z,75.54
2022-08-08T16:47:21.904Z,76.40
2022-08-08T16:50:13.645Z,76.73
2022-08-08T16:55:06.934Z,76.36
2022-08-08T16:55:53.500Z,77.58
2022-08-08T16:58:26.426Z,78.45
2022-08-08T17:00:58.098Z,78.53
2022-08-08T17:03:59.078Z,78.56
2022-08-08T17:06:35.645Z,78.93
2022-08-08T17:09:04.542Z,78.34
2022-08-08T17:11:48.244Z,77.65
2022-08-08T17:14:27.205Z,77.93
2022-08-08T17:17:03.745Z,77.07
2022-08-08T17:19:40.976Z,76.60
2022-08-08T17:22:10.826Z,75.70
2022-08-08T17:24:40.989Z,75.87
2022-08-08T17:27:10.392Z,75.72
2022-08-08T17:29:43.719Z,75.43
2022-08-08T17:32:28.987Z,74.90
2022-08-08T17:35:53.341Z,75.71
2022-08-08T17:37:53.186Z,75.00
2022-08-08T17:40:24.302Z,74.81
2022-08-08T17:42:56.197Z,75.93
2022-08-08T17:45:26.854Z,75.63
2022-08-08T17:48:01.168Z,75.35
2022-08-08T17:50:30.153Z,75.52
2022-08-08T17:53:00.323Z,75.66
2022-08-08T17:56:05.736Z,76.06
2022-08-08T17:58:18.221Z,76.22
2022-08-08T18:00:56.441Z,75.88
2022-08-08T18:03:25.854Z,75.84
2022-08-08T18:05:54.058Z,76.35
2022-08-08T18:08:24.950Z,76.45
2022-08-08T18:11:14.535Z,76.32
2022-08-08T18:13:45.882Z,76.76
2022-08-08T18:16:23.304Z,77.51
2022-08-08T18:18:55.999Z,76.87
2022-08-08T18:21:59.805Z,77.77
2022-08-08T18:24:21.402Z,77.83
2022-08-08T18:26:53.707Z,77.46
2022-08-08T18:29:29.889Z,77.63
2022-08-08T18:32:04.306Z,77.26
2022-08-08T18:34:34.349Z,78.29
2022-08-08T18:37:08.597Z,78.18
2022-08-08T18:39:38.561Z,78.31
2022-08-08T18:42:14.318Z,78.79
2022-08-08T18:44:53.103Z,77.72
2022-08-08T18:47:26.962Z,78.14
2022-08-08T18:50:00.423Z,77.75
2022-08-08T18:52:33.931Z,77.85
2022-08-08T18:55:10.510Z,77.72
2022-08-08T18:57:43.442Z,77.29
2022-08-08T19:00:20.263Z,79.13
2022-08-08T19:03:02.459Z,79.72
2022-08-08T19:05:46.625Z,79.91
2022-08-08T19:08:24.708Z,80.03
2022-08-08T19:10:58.372Z,79.62
2022-08-08T19:13:47.328Z,79.57
2022-08-08T19:16:19.565Z,78.92
2022-08-08T19:19:02.119Z,78.77
2022-08-08T19:21:33.558Z,78.41
2022-08-08T19:24:34.098Z,78.69
2022-08-08T19:27:04.817Z,78.58
2022-08-08T19:29:40.827Z,80.23
2022-08-08T19:32:12.788Z,80.11
2022-08-08T19:34:51.460Z,79.89
2022-08-08T19:37:42.201Z,79.01
2022-08-08T19:40:14.522Z,79.41
2022-08-08T19:42:44.633Z,79.12
2022-08-08T19:45:14.081Z,79.31
2022-08-08T19:48:01.531Z,78.86
2022-08-08T19:50:33.184Z,78.77
2022-08-08T19:53:46.790Z,79.05
2022-08-08T19:56:03.452Z,80.20
2022-08-08T19:58:31.812Z,80.63
2022-08-08T20:01:00.113Z,79.28
2022-08-08T20:04:01.566Z,78.97
2022-08-08T20:06:19.256Z,79.26
2022-08-08T20:08:48.920Z,79.42
2022-08-08T20:11:21.857Z,79.93
2022-08-08T20:14:32.884Z,80.85
2022-08-08T20:16:40.494Z,81.06
2022-08-08T20:19:09.031Z,80.57
2022-08-08T20:21:38.654Z,81.18
2022-08-08T20:24:08.124Z,80.70
2022-08-08T20:26:38.236Z,80.68
2022-08-08T20:29:08.440Z,81.17
2022-08-08T20:32:06.848Z,81.97
2022-08-08T20:34:29.340Z,80.85
2022-08-08T20:37:03.318Z,81.83
2022-08-08T20:39:39.004Z,81.76
2022-08-08T20:42:10.283Z,82.29
2022-08-08T20:44:39.717Z,82.27
2022-08-08T20:47:22.937Z,82.19
2022-08-08T20:49:54.405Z,81.70
2022-08-08T20:52:28.123Z,81.37
2022-08-08T20:55:07.596Z,81.59
2022-08-08T20:57:51.519Z,80.99
2022-08-08T21:00:21.327Z,80.72
2022-08-08T21:02:52.875Z,80.37
2022-08-08T21:05:23.203Z,80.68
2022-08-08T21:08:33.586Z,79.40
2022-08-08T21:10:41.442Z,78.10
2022-08-08T21:13:10.064Z,77.44
2022-08-08T21:16:06.259Z,78.99
2022-08-08T21:18:27.988Z,79.48
2022-08-08T21:20:56.460Z,78.53
2022-08-08T21:24:02.450Z,79.43
2022-08-08T21:26:26.881Z,80.38
2022-08-08T21:29:00.591Z,80.06
2022-08-08T21:31:53.291Z,79.49
2022-08-08T21:34:19.212Z,80.89
2022-08-08T21:36:51.238Z,80.83
2022-08-08T21:39:41.404Z,79.04
2022-08-08T21:42:13.465Z,80.60
2022-08-08T21:44:58.868Z,80.09
2022-08-08T21:48:05.275Z,80.23
2022-08-08T21:50:18.074Z,80.16
2022-08-08T21:54:35.370Z,80.87
2022-08-08T21:56:19.375Z,81.85
2022-08-08T21:58:32.235Z,80.79
2022-08-08T22:01:06.253Z,80.80
2022-08-08T22:03:54.386Z,81.18
2022-08-08T22:06:31.593Z,81.22
2022-08-08T22:09:02.764Z,81.64
2022-08-08T22:11:52.912Z,82.55
2022-08-08T22:14:27.042Z,83.83
2022-08-08T22:17:00.990Z,84.90
2022-08-08T22:20:10.641Z,84.98
2022-08-08T22:22:19.160Z,85.24
2022-08-08T22:24:47.332Z,84.89
2022-08-08T22:27:17.694Z,83.45
2022-08-08T22:30:13.636Z,83.48
2022-08-08T22:32:42.790Z,83.63
2022-08-08T22:35:23.880Z,83.73
2022-08-08T22:37:54.773Z,83.43
2022-08-08T22:40:23.741Z,83.63
2022-08-08T22:43:01.674Z,83.08
2022-08-08T22:45:32.188Z,83.26
2022-08-08T22:48:02.853Z,82.81
2022-08-08T22:50:32.133Z,82.69
2022-08-08T22:54:28.204Z,82.72
2022-08-08T22:55:58.553Z,82.56
2022-08-08T22:58:33.186Z,83.00
2022-08-08T23:01:33.698Z,82.89
2022-08-08T23:03:53.648Z,84.18
2022-08-08T23:06:24.249Z,84.15
2022-08-08T23:08:55.836Z,84.66
2022-08-08T23:11:31.438Z,84.26
2022-08-08T23:14:21.266Z,84.24
2022-08-08T23:16:57.873Z,84.73
2022-08-08T23:19:30.713Z,84.23
2022-08-08T23:22:00.395Z,83.41
2022-08-08T23:24:36.793Z,82.86
2022-08-08T23:27:10.189Z,82.62
2022-08-08T23:29:40.519Z,80.92
2022-08-08T23:32:10.965Z,80.27
2022-08-08T23:34:39.752Z,80.27
2022-08-08T23:37:17.877Z,80.77
2022-08-08T23:39:55.581Z,81.95
2022-08-08T23:42:26.314Z,83.87
2022-08-08T23:44:57.516Z,83.89
2022-08-08T23:49:02.370Z,84.35
2022-08-08T23:50:30.159Z,85.28
2022-08-08T23:53:03.694Z,85.55
2022-08-08T23:55:38.382Z,85.79
2022-08-08T23:58:22.353Z,85.48
